sensor_id;sensor_type;location;lat;lon;timestamp;P1;durP1;ratioP1;P2;durP2;ratioP2
23044;SDS011;11690;51.716;23.066;2022-12-07T00:01:17;47.40;;;21.13;;
23044;SDS011;11690;51.716;23.066;2022-12-07T00:03:46;42.63;;;19.17;;
23044;SDS011;11690;51.716;23.066;2022-12-07T00:06:15;58.50;;;21.40;;
23044;SDS011;11690;51.716;23.066;2022-12-07T00:08:42;45.53;;;20.03;;
23044;SDS011;11690;51.716;23.066;2022-12-07T00:11:11;42.80;;;19.33;;
23044;SDS011;11690;51.716;23.066;2022-12-07T00:13:40;39.03;;;19.57;;
23044;SDS011;11690;51.716;23.066;2022-12-07T00:16:09;37.57;;;18.83;;
23044;SDS011;11690;51.716;23.066;2022-12-07T00:18:38;39.87;;;19.93;;
23044;SDS011;11690;51.716;23.066;2022-12-07T00:21:08;39.17;;;19.70;;
23044;SDS011;11690;51.716;23.066;2022-12-07T00:23:56;234.00;;;161.97;;
23044;SDS011;11690;51.716;23.066;2022-12-07T00:26:24;160.97;;;111.67;;
23044;SDS011;11690;51.716;23.066;2022-12-07T00:28:54;53.40;;;24.43;;
23044;SDS011;11690;51.716;23.066;2022-12-07T00:31:23;47.07;;;22.47;;
23044;SDS011;11690;51.716;23.066;2022-12-07T00:33:57;40.83;;;18.23;;
23044;SDS011;11690;51.716;23.066;2022-12-07T00:36:24;38.73;;;19.17;;
23044;SDS011;11690;51.716;23.066;2022-12-07T00:38:53;38.33;;;17.80;;
23044;SDS011;11690;51.716;23.066;2022-12-07T00:41:22;33.73;;;16.97;;
23044;SDS011;11690;51.716;23.066;2022-12-07T00:43:50;36.77;;;19.00;;
23044;SDS011;11690;51.716;23.066;2022-12-07T00:46:18;31.60;;;16.67;;
23044;SDS011;11690;51.716;23.066;2022-12-07T00:48:47;36.43;;;19.23;;
23044;SDS011;11690;51.716;23.066;2022-12-07T00:51:15;34.60;;;17.63;;
23044;SDS011;11690;51.716;23.066;2022-12-07T00:53:43;36.07;;;18.23;;
23044;SDS011;11690;51.716;23.066;2022-12-07T00:58:49;38.60;;;19.03;;
23044;SDS011;11690;51.716;23.066;2022-12-07T01:01:23;43.43;;;21.20;;
23044;SDS011;11690;51.716;23.066;2022-12-07T01:03:51;50.10;;;22.60;;
23044;SDS011;11690;51.716;23.066;2022-12-07T01:06:19;41.30;;;22.10;;
23044;SDS011;11690;51.716;23.066;2022-12-07T01:08:47;48.20;;;24.10;;
23044;SDS011;11690;51.716;23.066;2022-12-07T01:11:16;49.57;;;24.30;;
23044;SDS011;11690;51.716;23.066;2022-12-07T01:13:45;60.17;;;27.13;;
23044;SDS011;11690;51.716;23.066;2022-12-07T01:16:13;56.50;;;26.87;;
23044;SDS011;11690;51.716;23.066;2022-12-07T01:18:41;56.13;;;27.37;;
23044;SDS011;11690;51.716;23.066;2022-12-07T01:21:11;54.87;;;26.23;;
23044;SDS011;11690;51.716;23.066;2022-12-07T01:23:39;56.10;;;26.30;;
23044;SDS011;11690;51.716;23.066;2022-12-07T01:26:08;59.57;;;26.03;;
23044;SDS011;11690;51.716;23.066;2022-12-07T01:28:37;57.77;;;23.40;;
23044;SDS011;11690;51.716;23.066;2022-12-07T01:31:09;59.43;;;25.90;;
23044;SDS011;11690;51.716;23.066;2022-12-07T01:33:38;58.27;;;24.27;;
23044;SDS011;11690;51.716;23.066;2022-12-07T01:36:13;54.77;;;21.40;;
23044;SDS011;11690;51.716;23.066;2022-12-07T01:38:41;46.70;;;21.97;;
23044;SDS011;11690;51.716;23.066;2022-12-07T01:41:08;54.00;;;22.17;;
23044;SDS011;11690;51.716;23.066;2022-12-07T01:43:35;51.57;;;23.67;;
23044;SDS011;11690;51.716;23.066;2022-12-07T01:46:03;51.87;;;22.83;;
23044;SDS011;11690;51.716;23.066;2022-12-07T01:48:39;47.80;;;21.40;;
23044;SDS011;11690;51.716;23.066;2022-12-07T01:51:09;48.73;;;21.23;;
23044;SDS011;11690;51.716;23.066;2022-12-07T01:53:38;49.97;;;21.20;;
23044;SDS011;11690;51.716;23.066;2022-12-07T01:56:09;44.27;;;21.10;;
23044;SDS011;11690;51.716;23.066;2022-12-07T01:58:37;52.43;;;22.43;;
23044;SDS011;11690;51.716;23.066;2022-12-07T02:01:05;50.27;;;22.97;;
23044;SDS011;11690;51.716;23.066;2022-12-07T02:03:34;58.97;;;24.10;;
23044;SDS011;11690;51.716;23.066;2022-12-07T02:06:04;62.57;;;22.17;;
23044;SDS011;11690;51.716;23.066;2022-12-07T02:08:32;60.83;;;23.07;;
23044;SDS011;11690;51.716;23.066;2022-12-07T02:11:00;56.00;;;24.10;;
23044;SDS011;11690;51.716;23.066;2022-12-07T02:13:29;66.03;;;23.07;;
23044;SDS011;11690;51.716;23.066;2022-12-07T02:18:36;63.10;;;25.90;;
23044;SDS011;11690;51.716;23.066;2022-12-07T02:21:07;72.47;;;25.07;;
23044;SDS011;11690;51.716;23.066;2022-12-07T02:23:46;60.43;;;25.27;;
23044;SDS011;11690;51.716;23.066;2022-12-07T02:29:09;61.47;;;24.30;;
23044;SDS011;11690;51.716;23.066;2022-12-07T02:32:11;71.63;;;25.67;;
23044;SDS011;11690;51.716;23.066;2022-12-07T02:37:39;64.30;;;25.33;;
23044;SDS011;11690;51.716;23.066;2022-12-07T02:40:23;76.80;;;26.50;;
23044;SDS011;11690;51.716;23.066;2022-12-07T02:45:52;70.20;;;28.23;;
23044;SDS011;11690;51.716;23.066;2022-12-07T02:48:22;74.83;;;28.00;;
23044;SDS011;11690;51.716;23.066;2022-12-07T02:50:50;76.03;;;30.63;;
23044;SDS011;11690;51.716;23.066;2022-12-07T02:59:07;70.60;;;25.83;;
23044;SDS011;11690;51.716;23.066;2022-12-07T03:09:57;78.77;;;24.87;;
23044;SDS011;11690;51.716;23.066;2022-12-07T03:12:44;66.53;;;24.67;;
23044;SDS011;11690;51.716;23.066;2022-12-07T03:15:26;67.07;;;25.03;;
23044;SDS011;11690;51.716;23.066;2022-12-07T03:18:02;66.37;;;25.57;;
23044;SDS011;11690;51.716;23.066;2022-12-07T03:20:31;65.87;;;26.70;;
23044;SDS011;11690;51.716;23.066;2022-12-07T03:22:59;64.73;;;26.53;;
23044;SDS011;11690;51.716;23.066;2022-12-07T03:25:26;68.30;;;27.03;;
23044;SDS011;11690;51.716;23.066;2022-12-07T03:30:27;65.60;;;28.57;;
23044;SDS011;11690;51.716;23.066;2022-12-07T03:32:58;67.40;;;28.13;;
23044;SDS011;11690;51.716;23.066;2022-12-07T03:35:35;68.83;;;28.87;;
23044;SDS011;11690;51.716;23.066;2022-12-07T03:38:20;64.67;;;27.57;;
23044;SDS011;11690;51.716;23.066;2022-12-07T03:40:53;64.13;;;28.47;;
23044;SDS011;11690;51.716;23.066;2022-12-07T03:43:23;64.80;;;28.10;;
23044;SDS011;11690;51.716;23.066;2022-12-07T03:49:06;66.30;;;28.43;;
23044;SDS011;11690;51.716;23.066;2022-12-07T03:54:27;59.93;;;26.67;;
23044;SDS011;11690;51.716;23.066;2022-12-07T03:56:55;58.63;;;26.07;;
23044;SDS011;11690;51.716;23.066;2022-12-07T03:59:23;57.37;;;27.70;;
23044;SDS011;11690;51.716;23.066;2022-12-07T04:01:58;60.27;;;28.43;;
23044;SDS011;11690;51.716;23.066;2022-12-07T04:04:29;56.10;;;27.73;;
23044;SDS011;11690;51.716;23.066;2022-12-07T04:06:56;58.37;;;28.00;;
23044;SDS011;11690;51.716;23.066;2022-12-07T04:09:23;63.43;;;28.57;;
23044;SDS011;11690;51.716;23.066;2022-12-07T04:11:50;57.73;;;27.17;;
23044;SDS011;11690;51.716;23.066;2022-12-07T04:14:17;56.30;;;26.40;;
23044;SDS011;11690;51.716;23.066;2022-12-07T04:16:48;57.50;;;27.57;;
23044;SDS011;11690;51.716;23.066;2022-12-07T04:19:17;58.43;;;26.23;;
23044;SDS011;11690;51.716;23.066;2022-12-07T04:21:45;53.30;;;27.43;;
23044;SDS011;11690;51.716;23.066;2022-12-07T04:24:13;53.03;;;28.13;;
23044;SDS011;11690;51.716;23.066;2022-12-07T04:26:41;53.53;;;25.70;;
23044;SDS011;11690;51.716;23.066;2022-12-07T04:29:09;52.50;;;26.37;;
23044;SDS011;11690;51.716;23.066;2022-12-07T04:31:36;43.77;;;24.07;;
23044;SDS011;11690;51.716;23.066;2022-12-07T04:34:04;49.03;;;24.27;;
23044;SDS011;11690;51.716;23.066;2022-12-07T04:36:32;44.13;;;23.93;;
23044;SDS011;11690;51.716;23.066;2022-12-07T04:38:59;43.93;;;23.67;;
23044;SDS011;11690;51.716;23.066;2022-12-07T04:41:27;48.60;;;24.07;;
23044;SDS011;11690;51.716;23.066;2022-12-07T04:43:54;39.93;;;22.93;;
23044;SDS011;11690;51.716;23.066;2022-12-07T04:46:27;38.43;;;21.30;;
23044;SDS011;11690;51.716;23.066;2022-12-07T04:48:55;38.13;;;23.20;;
23044;SDS011;11690;51.716;23.066;2022-12-07T04:51:24;40.23;;;21.83;;
23044;SDS011;11690;51.716;23.066;2022-12-07T04:53:53;31.83;;;19.10;;
23044;SDS011;11690;51.716;23.066;2022-12-07T04:56:20;28.33;;;18.27;;
23044;SDS011;11690;51.716;23.066;2022-12-07T04:58:48;29.43;;;17.60;;
23044;SDS011;11690;51.716;23.066;2022-12-07T05:01:16;28.20;;;17.53;;
23044;SDS011;11690;51.716;23.066;2022-12-07T05:03:43;26.70;;;16.00;;
23044;SDS011;11690;51.716;23.066;2022-12-07T05:06:11;28.27;;;15.60;;
23044;SDS011;11690;51.716;23.066;2022-12-07T05:08:39;60.10;;;36.50;;
23044;SDS011;11690;51.716;23.066;2022-12-07T05:11:07;34.30;;;22.23;;
23044;SDS011;11690;51.716;23.066;2022-12-07T05:13:35;38.77;;;24.60;;
23044;SDS011;11690;51.716;23.066;2022-12-07T05:16:02;25.23;;;16.80;;
23044;SDS011;11690;51.716;23.066;2022-12-07T05:18:30;19.63;;;13.00;;
23044;SDS011;11690;51.716;23.066;2022-12-07T05:20:57;18.90;;;13.07;;
23044;SDS011;11690;51.716;23.066;2022-12-07T05:23:24;20.83;;;12.57;;
23044;SDS011;11690;51.716;23.066;2022-12-07T05:25:51;16.40;;;11.20;;
23044;SDS011;11690;51.716;23.066;2022-12-07T05:28:18;17.63;;;10.33;;
23044;SDS011;11690;51.716;23.066;2022-12-07T05:30:45;14.33;;;10.00;;
23044;SDS011;11690;51.716;23.066;2022-12-07T05:33:12;21.27;;;11.00;;
23044;SDS011;11690;51.716;23.066;2022-12-07T05:35:39;13.27;;;8.27;;
23044;SDS011;11690;51.716;23.066;2022-12-07T05:38:07;17.83;;;11.47;;
23044;SDS011;11690;51.716;23.066;2022-12-07T05:40:34;17.63;;;12.83;;
23044;SDS011;11690;51.716;23.066;2022-12-07T05:43:01;18.97;;;13.37;;
23044;SDS011;11690;51.716;23.066;2022-12-07T05:45:30;12.67;;;8.73;;
23044;SDS011;11690;51.716;23.066;2022-12-07T05:47:57;11.53;;;7.97;;
23044;SDS011;11690;51.716;23.066;2022-12-07T05:50:25;10.80;;;6.80;;
23044;SDS011;11690;51.716;23.066;2022-12-07T05:52:59;10.70;;;6.97;;
23044;SDS011;11690;51.716;23.066;2022-12-07T05:55:26;12.40;;;7.63;;
23044;SDS011;11690;51.716;23.066;2022-12-07T05:57:53;12.60;;;6.63;;
23044;SDS011;11690;51.716;23.066;2022-12-07T06:00:39;9.97;;;6.83;;
23044;SDS011;11690;51.716;23.066;2022-12-07T06:03:06;13.23;;;9.00;;
23044;SDS011;11690;51.716;23.066;2022-12-07T06:05:33;9.20;;;6.70;;
23044;SDS011;11690;51.716;23.066;2022-12-07T06:08:00;8.83;;;6.83;;
23044;SDS011;11690;51.716;23.066;2022-12-07T06:10:32;9.63;;;7.07;;
23044;SDS011;11690;51.716;23.066;2022-12-07T06:12:59;12.70;;;7.30;;
23044;SDS011;11690;51.716;23.066;2022-12-07T06:15:26;9.17;;;6.10;;
23044;SDS011;11690;51.716;23.066;2022-12-07T06:17:53;9.63;;;5.80;;
23044;SDS011;11690;51.716;23.066;2022-12-07T06:20:20;9.13;;;5.77;;
23044;SDS011;11690;51.716;23.066;2022-12-07T06:22:47;23.27;;;13.50;;
23044;SDS011;11690;51.716;23.066;2022-12-07T06:25:14;13.23;;;6.70;;
23044;SDS011;11690;51.716;23.066;2022-12-07T06:27:41;13.07;;;7.40;;
23044;SDS011;11690;51.716;23.066;2022-12-07T06:30:08;11.70;;;7.43;;
23044;SDS011;11690;51.716;23.066;2022-12-07T06:32:36;12.63;;;8.03;;
23044;SDS011;11690;51.716;23.066;2022-12-07T06:35:03;14.10;;;7.93;;
23044;SDS011;11690;51.716;23.066;2022-12-07T06:37:30;12.03;;;7.33;;
23044;SDS011;11690;51.716;23.066;2022-12-07T06:39:57;12.03;;;7.63;;
23044;SDS011;11690;51.716;23.066;2022-12-07T06:42:25;12.83;;;7.23;;
23044;SDS011;11690;51.716;23.066;2022-12-07T06:44:52;15.23;;;8.53;;
23044;SDS011;11690;51.716;23.066;2022-12-07T06:47:19;11.23;;;7.40;;
23044;SDS011;11690;51.716;23.066;2022-12-07T06:50:07;10.77;;;7.73;;
23044;SDS011;11690;51.716;23.066;2022-12-07T06:52:34;14.03;;;8.47;;
23044;SDS011;11690;51.716;23.066;2022-12-07T06:55:01;12.67;;;7.90;;
23044;SDS011;11690;51.716;23.066;2022-12-07T06:57:28;16.00;;;9.47;;
23044;SDS011;11690;51.716;23.066;2022-12-07T06:59:55;17.50;;;9.70;;
23044;SDS011;11690;51.716;23.066;2022-12-07T07:02:22;15.90;;;8.93;;
23044;SDS011;11690;51.716;23.066;2022-12-07T07:04:49;15.00;;;8.23;;
23044;SDS011;11690;51.716;23.066;2022-12-07T07:07:16;18.17;;;10.70;;
23044;SDS011;11690;51.716;23.066;2022-12-07T07:09:43;32.03;;;17.00;;
23044;SDS011;11690;51.716;23.066;2022-12-07T07:12:10;14.60;;;8.93;;
23044;SDS011;11690;51.716;23.066;2022-12-07T07:14:37;11.03;;;7.63;;
23044;SDS011;11690;51.716;23.066;2022-12-07T07:17:04;19.23;;;9.37;;
23044;SDS011;11690;51.716;23.066;2022-12-07T07:19:31;13.57;;;8.80;;
23044;SDS011;11690;51.716;23.066;2022-12-07T07:21:58;16.07;;;9.93;;
23044;SDS011;11690;51.716;23.066;2022-12-07T07:24:25;16.53;;;10.67;;
23044;SDS011;11690;51.716;23.066;2022-12-07T07:26:53;16.43;;;10.23;;
23044;SDS011;11690;51.716;23.066;2022-12-07T07:29:20;18.67;;;10.17;;
23044;SDS011;11690;51.716;23.066;2022-12-07T07:31:47;18.57;;;10.73;;
23044;SDS011;11690;51.716;23.066;2022-12-07T07:34:14;15.87;;;10.00;;
23044;SDS011;11690;51.716;23.066;2022-12-07T07:36:41;13.70;;;9.10;;
23044;SDS011;11690;51.716;23.066;2022-12-07T07:39:09;15.90;;;10.27;;
23044;SDS011;11690;51.716;23.066;2022-12-07T07:41:36;17.50;;;10.33;;
23044;SDS011;11690;51.716;23.066;2022-12-07T07:44:03;20.63;;;10.80;;
23044;SDS011;11690;51.716;23.066;2022-12-07T07:46:30;18.57;;;10.67;;
23044;SDS011;11690;51.716;23.066;2022-12-07T07:49:00;18.53;;;12.20;;
23044;SDS011;11690;51.716;23.066;2022-12-07T07:51:27;16.83;;;10.93;;
23044;SDS011;11690;51.716;23.066;2022-12-07T07:53:54;18.10;;;12.00;;
23044;SDS011;11690;51.716;23.066;2022-12-07T07:56:21;16.93;;;11.20;;
23044;SDS011;11690;51.716;23.066;2022-12-07T07:58:51;36.37;;;16.10;;
23044;SDS011;11690;51.716;23.066;2022-12-07T08:01:18;50.90;;;21.50;;
23044;SDS011;11690;51.716;23.066;2022-12-07T08:03:48;20.13;;;11.97;;
23044;SDS011;11690;51.716;23.066;2022-12-07T08:06:15;23.03;;;13.30;;
23044;SDS011;11690;51.716;23.066;2022-12-07T08:08:42;20.47;;;11.70;;
23044;SDS011;11690;51.716;23.066;2022-12-07T08:11:09;21.07;;;11.27;;
23044;SDS011;11690;51.716;23.066;2022-12-07T08:13:36;16.33;;;12.03;;
23044;SDS011;11690;51.716;23.066;2022-12-07T08:16:04;19.20;;;12.93;;
23044;SDS011;11690;51.716;23.066;2022-12-07T08:18:37;21.67;;;14.00;;
23044;SDS011;11690;51.716;23.066;2022-12-07T08:21:06;26.37;;;15.07;;
23044;SDS011;11690;51.716;23.066;2022-12-07T08:23:34;26.90;;;17.03;;
23044;SDS011;11690;51.716;23.066;2022-12-07T08:26:06;47.90;;;26.97;;
23044;SDS011;11690;51.716;23.066;2022-12-07T08:28:35;78.73;;;50.47;;
23044;SDS011;11690;51.716;23.066;2022-12-07T08:31:03;60.77;;;37.97;;
23044;SDS011;11690;51.716;23.066;2022-12-07T08:33:35;38.47;;;25.93;;
23044;SDS011;11690;51.716;23.066;2022-12-07T08:36:03;26.70;;;18.73;;
23044;SDS011;11690;51.716;23.066;2022-12-07T08:38:33;28.50;;;18.80;;
23044;SDS011;11690;51.716;23.066;2022-12-07T08:41:01;22.73;;;15.57;;
23044;SDS011;11690;51.716;23.066;2022-12-07T08:43:28;22.70;;;16.23;;
23044;SDS011;11690;51.716;23.066;2022-12-07T08:48:54;26.20;;;16.30;;
23044;SDS011;11690;51.716;23.066;2022-12-07T08:51:23;25.27;;;16.83;;
23044;SDS011;11690;51.716;23.066;2022-12-07T08:53:51;22.73;;;14.33;;
23044;SDS011;11690;51.716;23.066;2022-12-07T08:56:19;20.43;;;14.27;;
23044;SDS011;11690;51.716;23.066;2022-12-07T08:58:46;20.40;;;13.43;;
23044;SDS011;11690;51.716;23.066;2022-12-07T09:01:14;19.90;;;14.37;;
23044;SDS011;11690;51.716;23.066;2022-12-07T09:03:41;21.97;;;13.70;;
23044;SDS011;11690;51.716;23.066;2022-12-07T09:06:08;20.13;;;14.20;;
23044;SDS011;11690;51.716;23.066;2022-12-07T09:08:37;20.70;;;14.33;;
23044;SDS011;11690;51.716;23.066;2022-12-07T09:11:07;23.07;;;14.10;;
23044;SDS011;11690;51.716;23.066;2022-12-07T09:13:35;21.57;;;14.20;;
23044;SDS011;11690;51.716;23.066;2022-12-07T09:16:01;19.40;;;12.73;;
23044;SDS011;11690;51.716;23.066;2022-12-07T09:18:29;19.50;;;12.10;;
23044;SDS011;11690;51.716;23.066;2022-12-07T09:20:56;18.27;;;12.40;;
23044;SDS011;11690;51.716;23.066;2022-12-07T09:23:24;21.50;;;14.07;;
23044;SDS011;11690;51.716;23.066;2022-12-07T09:25:51;18.17;;;10.87;;
23044;SDS011;11690;51.716;23.066;2022-12-07T09:28:18;16.20;;;10.57;;
23044;SDS011;11690;51.716;23.066;2022-12-07T09:30:46;17.67;;;11.00;;
23044;SDS011;11690;51.716;23.066;2022-12-07T09:33:34;23.87;;;13.70;;
23044;SDS011;11690;51.716;23.066;2022-12-07T09:36:01;23.97;;;14.80;;
23044;SDS011;11690;51.716;23.066;2022-12-07T09:38:29;19.17;;;13.57;;
23044;SDS011;11690;51.716;23.066;2022-12-07T09:40:57;16.33;;;11.50;;
23044;SDS011;11690;51.716;23.066;2022-12-07T09:43:31;15.43;;;9.53;;
23044;SDS011;11690;51.716;23.066;2022-12-07T09:45:58;18.20;;;10.80;;
23044;SDS011;11690;51.716;23.066;2022-12-07T09:48:30;13.07;;;9.17;;
23044;SDS011;11690;51.716;23.066;2022-12-07T09:50:57;14.50;;;10.57;;
23044;SDS011;11690;51.716;23.066;2022-12-07T09:56:03;15.60;;;10.83;;
23044;SDS011;11690;51.716;23.066;2022-12-07T09:58:31;20.57;;;11.50;;
23044;SDS011;11690;51.716;23.066;2022-12-07T10:01:00;22.60;;;12.37;;
23044;SDS011;11690;51.716;23.066;2022-12-07T10:03:34;17.27;;;11.67;;
23044;SDS011;11690;51.716;23.066;2022-12-07T10:06:02;19.07;;;12.33;;
23044;SDS011;11690;51.716;23.066;2022-12-07T10:08:29;19.73;;;11.37;;
23044;SDS011;11690;51.716;23.066;2022-12-07T10:10:56;19.37;;;13.50;;
23044;SDS011;11690;51.716;23.066;2022-12-07T10:13:34;15.17;;;9.67;;
23044;SDS011;11690;51.716;23.066;2022-12-07T10:16:03;22.47;;;17.13;;
23044;SDS011;11690;51.716;23.066;2022-12-07T10:18:37;16.70;;;11.23;;
23044;SDS011;11690;51.716;23.066;2022-12-07T10:23:35;30.20;;;18.87;;
23044;SDS011;11690;51.716;23.066;2022-12-07T10:26:19;24.13;;;16.40;;
23044;SDS011;11690;51.716;23.066;2022-12-07T10:28:48;33.67;;;23.47;;
23044;SDS011;11690;51.716;23.066;2022-12-07T10:31:16;43.83;;;26.80;;
23044;SDS011;11690;51.716;23.066;2022-12-07T10:33:52;40.13;;;22.30;;
23044;SDS011;11690;51.716;23.066;2022-12-07T10:39:01;77.80;;;36.73;;
23044;SDS011;11690;51.716;23.066;2022-12-07T10:41:30;90.47;;;38.70;;
23044;SDS011;11690;51.716;23.066;2022-12-07T10:43:57;41.30;;;20.30;;
23044;SDS011;11690;51.716;23.066;2022-12-07T10:46:46;47.33;;;23.23;;
23044;SDS011;11690;51.716;23.066;2022-12-07T10:57:19;23.13;;;14.10;;
23044;SDS011;11690;51.716;23.066;2022-12-07T11:08:22;19.77;;;12.80;;
23044;SDS011;11690;51.716;23.066;2022-12-07T11:11:09;20.43;;;13.90;;
23044;SDS011;11690;51.716;23.066;2022-12-07T11:24:30;37.23;;;24.17;;
23044;SDS011;11690;51.716;23.066;2022-12-07T11:27:23;23.10;;;15.57;;
23044;SDS011;11690;51.716;23.066;2022-12-07T11:30:19;18.30;;;13.57;;
23044;SDS011;11690;51.716;23.066;2022-12-07T11:35:29;16.17;;;11.63;;
23044;SDS011;11690;51.716;23.066;2022-12-07T11:38:07;15.73;;;11.90;;
23044;SDS011;11690;51.716;23.066;2022-12-07T11:40:39;15.27;;;11.13;;
23044;SDS011;11690;51.716;23.066;2022-12-07T11:48:38;29.97;;;17.80;;
23044;SDS011;11690;51.716;23.066;2022-12-07T11:51:08;19.87;;;12.83;;
23044;SDS011;11690;51.716;23.066;2022-12-07T11:56:22;16.27;;;10.30;;
23044;SDS011;11690;51.716;23.066;2022-12-07T11:58:54;12.67;;;8.83;;
23044;SDS011;11690;51.716;23.066;2022-12-07T12:04:01;14.73;;;10.07;;
23044;SDS011;11690;51.716;23.066;2022-12-07T12:06:32;14.10;;;9.87;;
23044;SDS011;11690;51.716;23.066;2022-12-07T12:09:16;17.17;;;10.93;;
23044;SDS011;11690;51.716;23.066;2022-12-07T12:18:09;21.27;;;10.43;;
23044;SDS011;11690;51.716;23.066;2022-12-07T12:20:46;19.50;;;10.90;;
23044;SDS011;11690;51.716;23.066;2022-12-07T12:25:56;16.53;;;10.20;;
23044;SDS011;11690;51.716;23.066;2022-12-07T12:33:47;13.83;;;9.70;;
23044;SDS011;11690;51.716;23.066;2022-12-07T12:38:49;15.10;;;9.77;;
23044;SDS011;11690;51.716;23.066;2022-12-07T12:44:02;11.63;;;8.50;;
23044;SDS011;11690;51.716;23.066;2022-12-07T12:51:43;14.33;;;10.07;;
23044;SDS011;11690;51.716;23.066;2022-12-07T12:54:26;14.23;;;9.80;;
23044;SDS011;11690;51.716;23.066;2022-12-07T13:12:57;18.60;;;12.70;;
23044;SDS011;11690;51.716;23.066;2022-12-07T13:15:31;20.80;;;12.73;;
23044;SDS011;11690;51.716;23.066;2022-12-07T13:18:02;25.17;;;15.67;;
23044;SDS011;11690;51.716;23.066;2022-12-07T13:20:43;29.37;;;17.07;;
23044;SDS011;11690;51.716;23.066;2022-12-07T13:23:16;31.23;;;18.53;;
23044;SDS011;11690;51.716;23.066;2022-12-07T13:25:56;28.47;;;19.93;;
23044;SDS011;11690;51.716;23.066;2022-12-07T13:28:32;32.30;;;19.90;;
23044;SDS011;11690;51.716;23.066;2022-12-07T13:33:57;25.43;;;15.27;;
23044;SDS011;11690;51.716;23.066;2022-12-07T13:36:25;21.23;;;14.23;;
23044;SDS011;11690;51.716;23.066;2022-12-07T13:38:56;20.00;;;13.33;;
23044;SDS011;11690;51.716;23.066;2022-12-07T13:41:28;22.33;;;13.73;;
23044;SDS011;11690;51.716;23.066;2022-12-07T13:46:27;19.33;;;13.07;;
23044;SDS011;11690;51.716;23.066;2022-12-07T13:49:00;20.17;;;13.57;;
23044;SDS011;11690;51.716;23.066;2022-12-07T13:51:27;25.07;;;14.90;;
23044;SDS011;11690;51.716;23.066;2022-12-07T13:53:57;24.47;;;15.07;;
23044;SDS011;11690;51.716;23.066;2022-12-07T13:56:28;24.30;;;15.23;;
23044;SDS011;11690;51.716;23.066;2022-12-07T13:58:59;24.30;;;15.33;;
23044;SDS011;11690;51.716;23.066;2022-12-07T14:01:27;24.20;;;15.07;;
23044;SDS011;11690;51.716;23.066;2022-12-07T14:04:16;22.87;;;14.37;;
23044;SDS011;11690;51.716;23.066;2022-12-07T14:06:50;25.67;;;14.87;;
23044;SDS011;11690;51.716;23.066;2022-12-07T14:09:19;22.93;;;14.80;;
23044;SDS011;11690;51.716;23.066;2022-12-07T14:11:49;23.50;;;14.73;;
23044;SDS011;11690;51.716;23.066;2022-12-07T14:14:28;22.57;;;14.63;;
23044;SDS011;11690;51.716;23.066;2022-12-07T14:19:42;24.17;;;15.13;;
23044;SDS011;11690;51.716;23.066;2022-12-07T14:24:50;20.93;;;13.40;;
23044;SDS011;11690;51.716;23.066;2022-12-07T14:27:24;22.33;;;13.53;;
23044;SDS011;11690;51.716;23.066;2022-12-07T14:29:58;41.07;;;22.27;;
23044;SDS011;11690;51.716;23.066;2022-12-07T14:32:26;70.17;;;29.13;;
23044;SDS011;11690;51.716;23.066;2022-12-07T14:37:34;85.87;;;32.33;;
23044;SDS011;11690;51.716;23.066;2022-12-07T14:40:02;88.07;;;36.17;;
23044;SDS011;11690;51.716;23.066;2022-12-07T14:42:29;61.27;;;23.73;;
23044;SDS011;11690;51.716;23.066;2022-12-07T14:44:57;80.20;;;31.43;;
23044;SDS011;11690;51.716;23.066;2022-12-07T14:47:25;77.67;;;28.77;;
23044;SDS011;11690;51.716;23.066;2022-12-07T14:50:14;66.73;;;26.77;;
23044;SDS011;11690;51.716;23.066;2022-12-07T14:52:46;86.40;;;33.57;;
23044;SDS011;11690;51.716;23.066;2022-12-07T14:55:36;87.47;;;28.27;;
23044;SDS011;11690;51.716;23.066;2022-12-07T14:58:03;64.30;;;25.03;;
23044;SDS011;11690;51.716;23.066;2022-12-07T15:00:30;84.60;;;30.10;;
23044;SDS011;11690;51.716;23.066;2022-12-07T15:02:57;91.33;;;31.47;;
23044;SDS011;11690;51.716;23.066;2022-12-07T15:05:25;118.20;;;39.20;;
23044;SDS011;11690;51.716;23.066;2022-12-07T15:07:52;90.40;;;32.23;;
23044;SDS011;11690;51.716;23.066;2022-12-07T15:10:30;115.57;;;42.10;;
23044;SDS011;11690;51.716;23.066;2022-12-07T15:12:59;139.80;;;46.47;;
23044;SDS011;11690;51.716;23.066;2022-12-07T15:15:48;112.17;;;30.70;;
23044;SDS011;11690;51.716;23.066;2022-12-07T15:18:16;95.30;;;46.83;;
23044;SDS011;11690;51.716;23.066;2022-12-07T15:20:44;73.17;;;46.97;;
23044;SDS011;11690;51.716;23.066;2022-12-07T15:23:11;28.93;;;19.30;;
23044;SDS011;11690;51.716;23.066;2022-12-07T15:25:43;24.70;;;16.10;;
23044;SDS011;11690;51.716;23.066;2022-12-07T15:28:11;26.77;;;17.67;;
23044;SDS011;11690;51.716;23.066;2022-12-07T15:30:39;30.13;;;15.67;;
23044;SDS011;11690;51.716;23.066;2022-12-07T15:33:07;25.53;;;11.90;;
23044;SDS011;11690;51.716;23.066;2022-12-07T15:35:38;25.03;;;13.73;;
23044;SDS011;11690;51.716;23.066;2022-12-07T15:38:06;31.73;;;18.13;;
23044;SDS011;11690;51.716;23.066;2022-12-07T15:40:33;17.50;;;10.73;;
23044;SDS011;11690;51.716;23.066;2022-12-07T15:43:01;29.57;;;12.10;;
23044;SDS011;11690;51.716;23.066;2022-12-07T15:45:29;16.27;;;9.13;;
23044;SDS011;11690;51.716;23.066;2022-12-07T15:47:57;29.13;;;11.43;;
23044;SDS011;11690;51.716;23.066;2022-12-07T15:50:44;16.93;;;11.70;;
23044;SDS011;11690;51.716;23.066;2022-12-07T15:53:11;13.47;;;9.80;;
23044;SDS011;11690;51.716;23.066;2022-12-07T15:55:38;26.47;;;12.37;;
23044;SDS011;11690;51.716;23.066;2022-12-07T15:58:06;15.30;;;9.77;;
23044;SDS011;11690;51.716;23.066;2022-12-07T16:00:33;22.57;;;12.47;;
23044;SDS011;11690;51.716;23.066;2022-12-07T16:03:01;18.80;;;11.27;;
23044;SDS011;11690;51.716;23.066;2022-12-07T16:05:28;18.97;;;11.27;;
23044;SDS011;11690;51.716;23.066;2022-12-07T16:07:55;51.43;;;22.20;;
23044;SDS011;11690;51.716;23.066;2022-12-07T16:10:22;23.90;;;12.43;;
23044;SDS011;11690;51.716;23.066;2022-12-07T16:12:49;23.60;;;12.73;;
23044;SDS011;11690;51.716;23.066;2022-12-07T16:15:16;22.87;;;13.13;;
23044;SDS011;11690;51.716;23.066;2022-12-07T16:17:50;22.20;;;14.83;;
23044;SDS011;11690;51.716;23.066;2022-12-07T16:20:17;23.60;;;14.57;;
23044;SDS011;11690;51.716;23.066;2022-12-07T16:22:45;27.13;;;18.07;;
23044;SDS011;11690;51.716;23.066;2022-12-07T16:25:11;23.63;;;16.53;;
23044;SDS011;11690;51.716;23.066;2022-12-07T16:27:39;27.83;;;14.87;;
23044;SDS011;11690;51.716;23.066;2022-12-07T16:30:06;42.83;;;24.13;;
23044;SDS011;11690;51.716;23.066;2022-12-07T16:32:34;49.67;;;26.97;;
23044;SDS011;11690;51.716;23.066;2022-12-07T16:35:01;27.47;;;17.63;;
23044;SDS011;11690;51.716;23.066;2022-12-07T16:37:28;32.47;;;20.13;;
23044;SDS011;11690;51.716;23.066;2022-12-07T16:39:55;19.20;;;13.23;;
23044;SDS011;11690;51.716;23.066;2022-12-07T16:42:23;21.17;;;14.30;;
23044;SDS011;11690;51.716;23.066;2022-12-07T16:44:49;17.57;;;11.47;;
23044;SDS011;11690;51.716;23.066;2022-12-07T16:47:17;19.73;;;12.70;;
23044;SDS011;11690;51.716;23.066;2022-12-07T16:49:43;19.53;;;12.27;;